Time;durP1;ratioP1;P1;durP2;ratioP2;P2;SDS_P1;SDS_P2;PMS_P1;PMS_P2;Temp;Humidity;BMP_temperature;BMP_pressure;BME280_temperature;BME280_humidity;BME280_pressure;Samples;Min_cycle;Max_cycle;Signal;HPM_P1;HPM_P2
2021/12/09 00:01:27;;;;;;;;;1.00;1.00;;;;;6.46;60.68;100035.63;5036194;28;45168;-73
2021/12/09 00:04:03;;;;;;;;;3.33;3.33;;;;;6.76;60.98;100089.34;5028862;28;45479;-74
2021/12/09 00:06:30;;;;;;;;;2.33;2.00;;;;;6.30;60.47;100004.44;5015070;28;46063;-74
2021/12/09 00:09:00;;;;;;;;;1.67;0.67;;;;;6.60;60.90;100058.16;5015267;28;45343;-76
2021/12/09 00:11:27;;;;;;;;;1.00;1.00;;;;;6.63;60.91;100058.75;5016245;28;45981;-74
2021/12/09 00:13:53;;;;;;;;;1.00;1.00;;;;;6.66;60.97;100065.56;5015047;28;45478;-74
2021/12/09 00:16:18;;;;;;;;;1.00;1.00;;;;;6.63;60.94;100052.63;5015179;28;45987;-74
2021/12/09 00:18:44;;;;;;;;;1.00;1.00;;;;;6.63;60.68;100052.63;5016103;28;45531;-73
2021/12/09 00:21:10;;;;;;;;;2.00;1.33;;;;;6.78;61.30;100092.69;5016644;28;45534;-75
2021/12/09 00:23:36;;;;;;;;;0.67;0.67;;;;;6.71;61.39;100089.75;5016358;28;45502;-75
2021/12/09 00:26:02;;;;;;;;;2.33;1.00;;;;;6.72;60.42;100099.34;5014785;28;48430;-74
2021/12/09 00:28:28;;;;;;;;;1.67;0.67;;;;;6.72;61.23;100094.91;5015997;28;45262;-74
2021/12/09 00:30:53;;;;;;;;;1.00;1.00;;;;;6.68;60.60;100090.03;5029398;28;45299;-76
2021/12/09 00:33:19;;;;;;;;;1.00;1.00;;;;;6.66;61.22;100082.25;5038455;28;45537;-74
2021/12/09 00:35:49;;;;;;;;;3.00;3.00;;;;;6.32;61.37;100028.91;5039335;28;46435;-75
2021/12/09 00:38:22;;;;;;;;;1.00;1.00;;;;;6.33;61.26;100030.56;5039147;28;45281;-74
2021/12/09 00:40:49;;;;;;;;;1.00;1.00;;;;;6.52;61.04;100058.00;5039489;28;45547;-71
2021/12/09 00:43:17;;;;;;;;;2.00;2.00;;;;;6.67;61.49;100083.09;5038967;28;45538;-73
2021/12/09 00:45:43;;;;;;;;;2.00;2.00;;;;;6.59;60.95;100072.34;5039070;28;45785;-74
2021/12/09 00:48:09;;;;;;;;;2.67;2.67;;;;;6.62;61.64;100094.06;5039139;28;45527;-72
2021/12/09 00:50:34;;;;;;;;;3.00;0.00;;;;;6.48;61.44;100065.38;5039294;28;45492;-73
2021/12/09 00:53:00;;;;;;;;;1.00;1.00;;;;;6.44;61.07;100063.13;5039351;28;45393;-72
2021/12/09 00:55:25;;;;;;;;;6.00;2.00;;;;;6.65;61.64;100098.22;5039093;28;45453;-74
2021/12/09 00:57:51;;;;;;;;;2.67;1.33;;;;;6.57;61.23;100079.56;5032937;28;46116;-73
2021/12/09 01:00:20;;;;;;;;;1.00;0.00;;;;;6.68;61.68;100097.97;5019524;28;45431;-72
2021/12/09 01:02:46;;;;;;;;;0.00;0.00;;;;;6.61;61.93;100112.69;5019510;28;45568;-73
2021/12/09 01:05:11;;;;;;;;;1.00;1.00;;;;;6.34;61.43;100042.81;5019187;28;46865;-73
2021/12/09 01:07:39;;;;;;;;;0.00;0.00;;;;;6.55;61.82;100102.63;5017996;28;45328;-74
2021/12/09 01:10:07;;;;;;;;;1.67;0.33;;;;;6.36;61.30;100075.19;5026561;28;45506;-73
2021/12/09 01:12:33;;;;;;;;;2.33;0.00;;;;;6.50;61.45;100095.13;5039023;28;45525;-73
2021/12/09 01:14:59;;;;;;;;;1.00;1.00;;;;;6.53;61.71;100094.00;5038233;28;46116;-74
2021/12/09 01:17:24;;;;;;;;;1.00;1.00;;;;;6.55;61.95;100110.56;5038933;28;45741;-74
2021/12/09 01:19:52;;;;;;;;;3.67;2.00;;;;;6.53;61.73;100105.41;5038966;28;45271;-74
2021/12/09 01:22:18;;;;;;;;;3.67;2.00;;;;;6.18;61.68;100047.75;5040504;28;45289;-74
2021/12/09 01:24:44;;;;;;;;;0.00;0.00;;;;;6.33;61.46;100075.47;5026333;28;47545;-72
2021/12/09 01:27:10;;;;;;;;;0.67;0.67;;;;;6.44;61.63;100100.09;5018787;28;45392;-73
2021/12/09 01:29:39;;;;;;;;;2.00;0.00;;;;;5.55;61.83;99964.41;5018651;28;45506;-73
2021/12/09 01:32:08;;;;;;;;;1.00;1.00;;;;;6.03;61.82;100054.38;5038066;28;45244;-71
2021/12/09 01:34:36;;;;;;;;;1.00;1.00;;;;;6.51;62.00;100123.19;5042516;28;45777;-73
2021/12/09 01:37:03;;;;;;;;;3.67;1.67;;;;;6.49;62.04;100098.72;5037516;28;46214;-73
2021/12/09 01:39:30;;;;;;;;;0.67;0.00;;;;;6.43;61.71;100098.44;5031841;28;45507;-74
2021/12/09 01:41:58;;;;;;;;;0.00;0.00;;;;;6.00;61.01;100023.78;5038331;28;45359;-72
2021/12/09 01:44:23;;;;;;;;;2.67;1.00;;;;;6.16;61.82;100041.75;5037980;28;46571;-73
2021/12/09 01:46:49;;;;;;;;;1.00;1.00;;;;;6.59;60.92;100115.44;5038216;28;45297;-73
2021/12/09 01:49:15;;;;;;;;;0.33;0.33;;;;;6.60;61.30;100126.81;5038637;28;45317;-73
2021/12/09 01:51:41;;;;;;;;;1.00;1.00;;;;;6.14;61.25;100061.34;5038149;28;45592;-73
2021/12/09 01:54:08;;;;;;;;;2.00;2.00;;;;;5.30;61.37;99924.31;5020376;28;46572;-73
2021/12/09 01:56:34;;;;;;;;;1.00;1.00;;;;;6.56;61.64;100136.00;5016726;28;45605;-73
2021/12/09 01:59:04;;;;;;;;;1.00;1.00;;;;;6.63;60.88;100129.22;5018453;28;45312;-73
2021/12/09 02:01:31;;;;;;;;;0.00;0.00;;;;;6.27;60.99;100072.53;5017771;28;45641;-72
2021/12/09 02:03:57;;;;;;;;;0.00;0.00;;;;;6.80;60.76;100148.84;5017979;28;45529;-73
2021/12/09 02:06:24;;;;;;;;;1.00;1.00;;;;;6.79;60.33;100132.19;5016633;28;46321;-74
2021/12/09 02:08:50;;;;;;;;;1.33;0.00;;;;;6.90;60.50;100150.56;5018893;28;45264;-72
2021/12/09 02:11:16;;;;;;;;;1.67;0.00;;;;;6.68;60.63;100129.66;5016952;28;45435;-73
2021/12/09 02:13:42;;;;;;;;;1.00;1.00;;;;;6.49;60.67;100103.19;5017977;28;46547;-74
2021/12/09 02:16:08;;;;;;;;;0.67;0.00;;;;;6.63;60.91;100142.44;5017961;28;45297;-72
2021/12/09 02:18:34;;;;;;;;;2.33;1.33;;;;;6.69;60.71;100152.47;5017866;28;45326;-73
2021/12/09 02:21:16;;;;;;;;;2.00;1.00;;;;;6.25;60.54;100072.66;5026817;28;45510;-72
2021/12/09 02:23:46;;;;;;;;;1.67;0.67;;;;;6.27;61.00;100069.88;5036073;28;48009;-74
2021/12/09 02:26:12;;;;;;;;;0.00;0.00;;;;;6.54;61.21;100124.72;5037716;28;45411;-72
2021/12/09 02:28:38;;;;;;;;;2.00;1.00;;;;;6.69;60.87;100155.09;5037917;28;45591;-74
2021/12/09 02:31:04;;;;;;;;;0.00;0.00;;;;;6.53;61.64;100113.34;5053301;28;45558;-74
2021/12/09 02:33:30;;;;;;;;;2.00;1.00;;;;;6.31;60.99;100082.69;5052865;28;48247;-72
2021/12/09 02:35:55;;;;;;;;;1.33;1.00;;;;;5.86;60.82;100003.00;5027459;28;46497;-72
2021/12/09 02:38:21;;;;;;;;;0.00;0.00;;;;;6.80;61.28;100149.69;5017750;28;45212;-73
2021/12/09 02:40:48;;;;;;;;;1.67;0.67;;;;;6.81;61.34;100145.25;5017473;28;45673;-73
2021/12/09 02:43:14;;;;;;;;;0.67;0.33;;;;;6.34;60.70;100073.66;5017354;28;46980;-73
2021/12/09 02:45:41;;;;;;;;;2.33;1.00;;;;;6.72;61.21;100146.91;5017520;28;45414;-72
2021/12/09 02:48:08;;;;;;;;;2.00;1.00;;;;;6.68;61.03;100121.72;5018317;28;45296;-73
2021/12/09 02:50:33;;;;;;;;;1.00;1.00;;;;;6.40;61.22;100095.06;5016812;28;45558;-73
2021/12/09 02:52:59;;;;;;;;;5.00;0.00;;;;;6.66;60.75;100136.88;5015274;28;47322;-73
2021/12/09 02:55:25;;;;;;;;;0.33;0.33;;;;;6.42;61.18;100099.41;5017484;28;45256;-73
2021/12/09 02:57:52;;;;;;;;;0.00;0.00;;;;;6.35;61.17;100097.28;5032746;28;45475;-73
2021/12/09 03:00:17;;;;;;;;;1.00;1.00;;;;;6.66;61.70;100152.72;5017720;28;46056;-73
2021/12/09 03:02:44;;;;;;;;;1.00;0.00;;;;;6.66;61.78;100152.72;5015661;28;47809;-73
2021/12/09 03:05:09;;;;;;;;;3.67;2.33;;;;;6.69;61.60;100168.31;5017093;28;45646;-72
2021/12/09 03:07:39;;;;;;;;;1.67;0.00;;;;;6.52;61.42;100140.72;5017001;28;45503;-73
2021/12/09 03:10:20;;;;;;;;;1.00;0.00;;;;;6.68;61.52;100161.34;5017312;28;45481;-73
2021/12/09 03:12:47;;;;;;;;;2.00;0.00;;;;;6.68;61.79;100156.91;5018417;28;45817;-74
2021/12/09 03:15:14;;;;;;;;;1.00;1.00;;;;;6.51;61.37;100148.78;5035483;28;45323;-73
2021/12/09 03:17:40;;;;;;;;;0.00;0.00;;;;;6.57;61.88;100158.78;5035721;28;45418;-73
2021/12/09 03:20:11;;;;;;;;;2.00;1.00;;;;;6.40;62.34;100157.59;5037076;28;45243;-73
2021/12/09 03:22:37;;;;;;;;;2.67;1.33;;;;;5.54;62.00;100002.28;5036995;28;46218;-72
2021/12/09 03:25:05;;;;;;;;;3.00;1.00;;;;;6.53;61.73;100158.22;5035149;28;45292;-73
2021/12/09 03:27:31;;;;;;;;;1.33;1.33;;;;;6.60;62.32;100166.44;5036879;28;45312;-73
2021/12/09 03:29:56;;;;;;;;;2.67;1.67;;;;;6.53;62.36;100146.81;5037813;28;45289;-73
2021/12/09 03:32:23;;;;;;;;;2.67;1.00;;;;;6.59;61.88;100160.31;5036727;28;47197;-73
2021/12/09 03:34:49;;;;;;;;;2.00;2.00;;;;;6.30;61.64;100115.31;5036286;28;45536;-73
2021/12/09 03:37:23;;;;;;;;;1.33;1.33;;;;;6.68;62.40;100182.47;5035893;28;45446;-72
2021/12/09 03:39:51;;;;;;;;;0.33;0.33;;;;;6.48;61.72;100133.19;5052481;28;45247;-74
2021/12/09 03:42:20;;;;;;;;;1.00;1.00;;;;;6.69;61.77;100168.31;5036432;28;45985;-73
2021/12/09 03:44:47;;;;;;;;;4.00;2.33;;;;;6.66;61.70;100168.56;5036411;28;45463;-73
2021/12/09 03:47:33;;;;;;;;;1.67;1.67;;;;;6.61;62.27;100152.31;5036618;28;45613;-72
2021/12/09 03:50:00;;;;;;;;;1.67;1.67;;;;;6.47;62.17;100132.34;5034007;28;45633;-75
2021/12/09 03:52:39;;;;;;;;;1.00;1.00;;;;;5.91;61.45;100039.56;5034513;28;46662;-73
2021/12/09 03:55:06;;;;;;;;;2.33;2.33;;;;;6.76;62.02;100184.44;5036368;28;45332;-73
2021/12/09 03:57:32;;;;;;;;;2.00;0.33;;;;;6.31;62.01;100111.72;5035252;28;45396;-73
2021/12/09 03:59:58;;;;;;;;;1.00;1.00;;;;;6.46;61.22;100137.78;5037388;28;45438;-72
2021/12/09 04:02:26;;;;;;;;;1.00;1.00;;;;;6.70;61.87;100191.09;5036611;28;45922;-71
2021/12/09 04:04:51;;;;;;;;;1.67;1.67;;;;;6.46;62.37;100156.25;5038206;28;45401;-72
2021/12/09 04:07:17;;;;;;;;;1.00;0.67;;;;;6.67;61.79;100196.66;5040145;28;45403;-73
2021/12/09 04:09:43;;;;;;;;;1.00;1.00;;;;;6.36;62.13;100128.00;5039950;28;45419;-73
2021/12/09 04:12:14;;;;;;;;;1.00;1.00;;;;;6.56;61.64;100165.88;5038053;28;47405;-74
2021/12/09 04:14:40;;;;;;;;;2.00;1.00;;;;;6.70;61.59;100178.75;5040930;28;45340;-72
2021/12/09 04:17:05;;;;;;;;;2.67;1.67;;;;;6.73;61.49;100193.47;5034709;28;45589;-73
2021/12/09 04:19:31;;;;;;;;;1.00;1.00;;;;;6.62;62.01;100189.16;5018487;28;45795;-73
2021/12/09 04:21:57;;;;;;;;;2.00;2.00;;;;;5.73;62.04;100048.06;5019752;28;46312;-73
2021/12/09 04:24:23;;;;;;;;;1.00;1.00;;;;;6.19;61.90;100118.03;5019842;28;45257;-72
2021/12/09 04:26:51;;;;;;;;;1.00;1.00;;;;;6.69;61.49;100202.66;5019983;28;45453;-71
2021/12/09 04:29:17;;;;;;;;;1.67;0.33;;;;;6.06;62.12;100101.59;5020111;28;45352;-73
2021/12/09 04:31:44;;;;;;;;;3.00;1.67;;;;;6.43;62.46;100172.38;5033009;28;46367;-73
2021/12/09 04:34:10;;;;;;;;;1.33;1.00;;;;;6.08;62.17;100110.22;5038046;28;45563;-74
2021/12/09 04:36:38;;;;;;;;;1.67;0.33;;;;;6.59;61.70;100193.81;5039773;28;45487;-74
2021/12/09 04:39:04;;;;;;;;;2.00;2.00;;;;;6.63;61.90;100195.25;5039647;28;45261;-73
2021/12/09 04:41:29;;;;;;;;;1.33;1.00;;;;;6.15;62.35;100127.19;5037782;28;46041;-74
2021/12/09 04:43:55;;;;;;;;;1.00;1.00;;;;;6.47;62.48;100174.59;5037656;28;46065;-74
2021/12/09 04:46:20;;;;;;;;;1.33;1.00;;;;;6.33;62.00;100144.09;5019916;28;45533;-73
2021/12/09 04:48:46;;;;;;;;;2.00;2.00;;;;;6.58;62.18;100206.19;5019412;28;45262;-75
2021/12/09 04:51:12;;;;;;;;;2.67;0.33;;;;;6.53;61.91;100195.19;5019155;28;45800;-74
2021/12/09 04:53:37;;;;;;;;;2.67;1.33;;;;;6.60;62.39;100208.69;5018842;28;45240;-74
2021/12/09 04:56:03;;;;;;;;;4.00;0.33;;;;;6.12;62.30;100123.97;5019227;28;45197;-72
2021/12/09 04:58:30;;;;;;;;;1.00;1.00;;;;;6.67;61.68;100200.13;5019421;28;45377;-73
2021/12/09 05:00:58;;;;;;;;;3.33;2.00;;;;;6.57;61.77;100186.03;5019132;28;45833;-73
2021/12/09 05:03:24;;;;;;;;;2.33;2.33;;;;;6.62;61.66;100207.63;5018805;28;45343;-72
2021/12/09 05:05:52;;;;;;;;;1.00;1.00;;;;;6.45;62.41;100181.00;5019129;28;45277;-72
2021/12/09 05:08:20;;;;;;;;;1.33;1.33;;;;;6.53;62.21;100205.75;5019063;28;45381;-72
2021/12/09 05:11:12;;;;;;;;;1.00;1.00;;;;;6.48;62.32;100207.13;5018519;28;46422;-73
2021/12/09 05:13:39;;;;;;;;;2.33;1.00;;;;;6.15;62.38;100153.59;5018593;28;45351;-72
2021/12/09 05:16:07;;;;;;;;;3.00;1.00;;;;;6.55;62.88;100218.84;5018264;28;45423;-73
2021/12/09 05:18:38;;;;;;;;;2.00;2.00;;;;;6.51;62.23;100197.13;5017004;28;45391;-73
2021/12/09 05:21:06;;;;;;;;;0.67;0.67;;;;;6.49;62.87;100196.44;5035288;28;46396;-73
2021/12/09 05:23:32;;;;;;;;;2.33;2.33;;;;;6.52;62.42;100209.38;5039144;28;45349;-73
2021/12/09 05:25:58;;;;;;;;;3.00;2.00;;;;;6.16;62.90;100159.69;5039341;28;45264;-73
2021/12/09 05:28:29;;;;;;;;;4.00;4.00;;;;;6.26;62.60;100161.44;5037791;28;45396;-73
2021/12/09 05:33:38;;;;;;;;;1.33;1.33;;;;;6.54;62.90;100219.81;5038257;28;45248;-72
2021/12/09 05:36:04;;;;;;;;;2.00;2.00;;;;;6.04;62.66;100130.75;5038218;28;45252;-75
2021/12/09 05:38:30;;;;;;;;;2.00;2.00;;;;;6.25;62.61;100175.59;5038280;28;45463;-73
2021/12/09 05:40:55;;;;;;;;;2.67;2.67;;;;;6.53;63.13;100215.50;5039122;28;45527;-74
2021/12/09 05:43:21;;;;;;;;;0.00;0.00;;;;;6.54;62.93;100211.88;5038269;28;45553;-73
2021/12/09 05:45:48;;;;;;;;;3.00;1.33;;;;;6.30;62.50;100189.25;5038471;28;45466;-73
2021/12/09 05:48:16;;;;;;;;;5.00;4.00;;;;;5.85;62.13;100113.94;5038530;28;45223;-72
2021/12/09 05:50:42;;;;;;;;;4.00;4.00;;;;;5.95;63.30;100138.59;5021759;28;48422;-72
2021/12/09 05:53:07;;;;;;;;;2.33;2.33;;;;;6.16;63.13;100186.91;5017930;28;45214;-74
2021/12/09 05:55:33;;;;;;;;;3.33;2.00;;;;;5.80;62.98;100138.88;5018231;28;45260;-72
2021/12/09 05:58:00;;;;;;;;;3.33;2.00;;;;;5.65;63.02;100113.81;5018415;28;45173;-73
2021/12/09 06:00:26;;;;;;;;;3.00;3.00;;;;;6.33;63.60;100220.66;5033527;28;46223;-74
2021/12/09 06:02:52;;;;;;;;;3.00;3.00;;;;;6.37;63.71;100219.44;5018146;28;45405;-74
2021/12/09 06:05:18;;;;;;;;;2.00;2.00;;;;;6.40;63.23;100232.38;5016853;28;47404;-73
2021/12/09 06:07:45;;;;;;;;;5.33;4.00;;;;;6.36;62.79;100227.47;5021285;28;45289;-73
2021/12/09 06:10:11;;;;;;;;;6.67;4.33;;;;;6.45;63.05;100233.81;5017357;28;46266;-73
2021/12/09 06:12:37;;;;;;;;;4.00;4.00;;;;;6.50;62.53;100237.72;5017782;28;45305;-72
2021/12/09 06:15:04;;;;;;;;;4.33;3.00;;;;;6.26;63.00;100216.88;5016208;28;45469;-72
2021/12/09 06:17:29;;;;;;;;;5.67;4.00;;;;;5.90;62.91;100153.97;5021561;28;45288;-74
2021/12/09 06:19:55;;;;;;;;;3.67;3.67;;;;;6.19;62.37;100191.09;5025708;28;45578;-72
2021/12/09 06:22:21;;;;;;;;;4.33;4.33;;;;;5.86;63.09;100144.63;5037004;28;45483;-73
2021/12/09 06:24:46;;;;;;;;;3.00;3.00;;;;;6.22;63.00;100207.53;5033008;28;45457;-74
2021/12/09 06:27:13;;;;;;;;;5.00;3.33;;;;;6.26;63.00;100216.88;5016813;28;45447;-73
2021/12/09 06:29:39;;;;;;;;;3.33;3.33;;;;;6.31;62.96;100235.78;5016990;28;45991;-74
2021/12/09 06:32:05;;;;;;;;;4.00;4.00;;;;;6.31;62.56;100222.59;5021546;28;45414;-74
2021/12/09 06:34:34;;;;;;;;;3.00;3.00;;;;;6.39;62.50;100232.50;5035265;28;45271;-74
2021/12/09 06:36:59;;;;;;;;;4.00;4.00;;;;;6.37;63.17;100248.47;5036117;28;45225;-74
2021/12/09 06:39:25;;;;;;;;;2.00;2.00;;;;;6.30;62.99;100249.97;5035413;28;47240;-74
2021/12/09 06:41:50;;;;;;;;;5.00;4.00;;;;;6.05;62.95;100210.75;5035561;28;45435;-75
2021/12/09 06:44:16;;;;;;;;;5.67;3.33;;;;;6.18;63.71;100232.50;5052730;28;45426;-73
2021/12/09 06:46:41;;;;;;;;;11.33;6.33;;;;;5.37;62.89;100104.69;5022888;28;45390;-74
2021/12/09 06:49:06;;;;;;;;;5.00;4.00;;;;;6.25;63.16;100254.78;5018563;28;47507;-75
2021/12/09 06:51:33;;;;;;;;;9.00;5.00;;;;;5.82;62.97;100182.78;5031058;28;45897;-75
2021/12/09 06:53:58;;;;;;;;;3.00;3.00;;;;;6.33;62.83;100273.47;5036680;28;45346;-76
2021/12/09 06:56:25;;;;;;;;;8.00;5.33;;;;;6.27;62.95;100273.97;5026257;28;45483;-75
2021/12/09 06:58:50;;;;;;;;;4.00;3.33;;;;;6.20;63.32;100262.25;5015858;28;48166;-75
2021/12/09 07:01:16;;;;;;;;;8.33;5.67;;;;;6.22;62.96;100270.06;5017120;28;45230;-73
2021/12/09 07:03:42;;;;;;;;;5.00;5.00;;;;;6.20;63.65;100266.69;5017087;28;45470;-73
2021/12/09 07:06:11;;;;;;;;;9.00;9.00;;;;;6.12;63.04;100259.41;5032378;28;45559;-74
2021/12/09 07:08:44;;;;;;;;;5.33;3.67;;;;;6.29;63.12;100271.22;5037284;28;46533;-72
2021/12/09 07:11:10;;;;;;;;;5.67;3.67;;;;;6.21;63.02;100265.75;5033748;28;45313;-73
2021/12/09 07:13:35;;;;;;;;;5.33;5.33;;;;;6.23;63.34;100283.13;5021431;28;45474;-78
2021/12/09 07:16:01;;;;;;;;;9.33;7.67;;;;;6.17;62.33;100266.94;5034196;28;45601;-75
2021/12/09 07:18:26;;;;;;;;;5.00;4.67;;;;;6.09;62.99;100247.31;5036665;28;46497;-72
2021/12/09 07:20:53;;;;;;;;;9.33;8.00;;;;;6.20;63.47;100278.06;5031781;28;45482;-71
2021/12/09 07:23:18;;;;;;;;;5.00;5.00;;;;;6.24;63.19;100268.97;5037155;28;45274;-72
2021/12/09 07:25:44;;;;;;;;;5.67;4.67;;;;;6.15;62.63;100264.44;5027866;28;45664;-74
2021/12/09 07:28:09;;;;;;;;;9.33;6.33;;;;;6.19;63.84;100281.69;5021820;28;45394;-72
2021/12/09 07:30:35;;;;;;;;;11.00;9.67;;;;;6.01;63.09;100246.28;5017711;28;45625;-75
2021/12/09 07:33:00;;;;;;;;;7.67;4.33;;;;;6.04;63.22;100254.78;5021988;28;45400;-74
2021/12/09 07:35:30;;;;;;;;;5.67;5.67;;;;;6.05;63.26;100253.81;5034501;28;45344;-73
2021/12/09 07:37:57;;;;;;;;;6.67;6.00;;;;;5.92;63.56;100241.75;5036906;28;45819;-73
2021/12/09 07:40:23;;;;;;;;;8.33;5.33;;;;;5.84;63.68;100254.72;5049942;28;45742;-74
2021/12/09 07:42:49;;;;;;;;;8.00;8.00;;;;;5.69;63.36;100220.72;5029242;28;45271;-75
2021/12/09 07:45:16;;;;;;;;;7.33;6.33;;;;;5.88;63.74;100248.22;5036575;28;45546;-76
2021/12/09 07:47:43;;;;;;;;;8.67;5.33;;;;;6.00;63.97;100255.13;5030167;28;46506;-75
2021/12/09 07:50:13;;;;;;;;;9.67;7.33;;;;;6.08;63.64;100265.91;5038812;28;45349;-79
2021/12/09 07:52:41;;;;;;;;;10.67;9.67;;;;;5.98;64.38;100262.34;5031861;28;45432;-74
2021/12/09 07:55:07;;;;;;;;;6.67;6.67;;;;;5.95;63.38;100252.03;5021003;28;45237;-73
2021/12/09 07:57:33;;;;;;;;;5.00;5.00;;;;;6.15;63.28;100288.19;5039753;28;45514;-75
2021/12/09 07:59:59;;;;;;;;;8.00;8.00;;;;;6.26;63.44;100282.88;5038420;28;45361;-74
2021/12/09 08:02:25;;;;;;;;;10.33;4.67;;;;;6.10;63.46;100256.06;5036309;28;45430;-75
2021/12/09 08:04:51;;;;;;;;;8.00;6.33;;;;;6.18;63.06;100255.41;5036124;28;45601;-74
2021/12/09 08:07:16;;;;;;;;;8.33;7.33;;;;;6.28;62.42;100270.38;5033573;28;46238;-74
2021/12/09 08:09:42;;;;;;;;;9.67;9.33;;;;;6.28;63.22;100270.38;5038277;28;45511;-76
2021/12/09 08:12:07;;;;;;;;;7.67;6.67;;;;;5.90;62.42;100202.31;5038627;28;45505;-76
2021/12/09 08:14:33;;;;;;;;;9.67;7.67;;;;;6.28;63.34;100280.09;5034195;28;45686;-72
2021/12/09 08:17:34;;;;;;;;;10.67;7.33;;;;;6.32;62.64;100278.88;5030774;28;45200;-72
2021/12/09 08:19:59;;;;;;;;;9.67;8.00;;;;;6.15;62.48;100259.16;5023116;28;45215;-77
2021/12/09 08:22:25;;;;;;;;;7.67;6.00;;;;;6.42;62.67;100294.78;5018532;28;45359;-77
2021/12/09 08:24:55;;;;;;;;;12.67;9.00;;;;;6.43;63.10;100289.38;5023748;28;45354;-75
2021/12/09 08:27:21;;;;;;;;;8.00;6.33;;;;;6.09;61.95;100233.28;5036757;28;47881;-73
2021/12/09 08:29:46;;;;;;;;;9.33;7.33;;;;;6.53;62.05;100294.72;5026371;28;46005;-76
2021/12/09 08:32:12;;;;;;;;;13.00;7.33;;;;;6.53;61.79;100277.06;5028864;28;46072;-74
2021/12/09 08:34:37;;;;;;;;;8.67;5.33;;;;;6.14;61.78;100206.50;5039971;28;45455;-77
2021/12/09 08:37:03;;;;;;;;;10.00;6.67;;;;;6.58;61.63;100255.53;5029943;28;48130;-74
2021/12/09 08:39:31;;;;;;;;;9.00;6.00;;;;;6.88;61.10;100284.63;5039297;28;45289;-76
2021/12/09 08:41:56;;;;;;;;;7.67;6.00;;;;;6.99;60.39;100286.34;5039754;28;45546;-76
2021/12/09 08:44:22;;;;;;;;;6.00;6.00;;;;;7.03;60.54;100269.28;5041506;28;45648;-75
2021/12/09 08:46:47;;;;;;;;;5.67;5.33;;;;;7.25;59.70;100279.66;5018397;28;46589;-74
2021/12/09 08:49:13;;;;;;;;;11.00;7.67;;;;;7.28;59.86;100289.13;5018550;28;45477;-76
2021/12/09 08:51:39;;;;;;;;;10.00;6.00;;;;;7.36;59.75;100278.69;5019703;28;45242;-76
2021/12/09 08:54:05;;;;;;;;;9.00;9.00;;;;;7.42;59.13;100277.34;5028843;28;45489;-75
2021/12/09 08:56:32;;;;;;;;;6.00;6.00;;;;;7.48;59.03;100263.56;5033446;28;45474;-78
2021/12/09 08:58:58;;;;;;;;;6.00;6.00;;;;;7.59;58.49;100268.72;5030862;28;45356;-78
2021/12/09 09:01:23;;;;;;;;;8.67;6.67;;;;;7.79;58.51;100301.34;5025274;28;45428;-76
2021/12/09 09:03:49;;;;;;;;;11.00;8.67;;;;;7.85;58.49;100306.94;5038549;28;45524;-75
2021/12/09 09:06:15;;;;;;;;;10.00;6.00;;;;;7.90;58.24;100304.72;5032654;28;46735;-75
2021/12/09 09:08:44;;;;;;;;;9.33;7.67;;;;;7.99;57.46;100303.03;5019220;28;45422;-77
2021/12/09 09:11:09;;;;;;;;;5.67;5.67;;;;;8.02;57.78;100316.03;5032988;28;45520;-76
2021/12/09 09:13:35;;;;;;;;;5.00;4.00;;;;;8.12;57.71;100327.44;5036361;28;45528;-75
2021/12/09 09:16:01;;;;;;;;;6.67;6.00;;;;;8.19;57.32;100320.63;5024132;28;47770;-74
2021/12/09 09:18:26;;;;;;;;;7.67;4.00;;;;;7.93;57.21;100261.25;5019669;28;45411;-75
2021/12/09 09:20:51;;;;;;;;;5.33;4.00;;;;;8.29;57.08;100322.44;5019936;28;45440;-77
2021/12/09 09:23:20;;;;;;;;;12.67;10.33;;;;;8.30;56.63;100313.53;5019611;28;45238;-77
2021/12/09 09:25:48;;;;;;;;;9.33;5.00;;;;;8.27;57.20;100305.84;5024043;28;48088;-76
2021/12/09 09:28:14;;;;;;;;;5.33;5.00;;;;;8.38;56.55;100316.31;5028280;28;46337;-75
2021/12/09 09:30:48;;;;;;;;;8.00;6.67;;;;;8.26;56.91;100293.59;5028233;28;45475;-77
2021/12/09 09:33:15;;;;;;;;;15.67;15.67;;;;;8.49;56.83;100310.88;5016524;28;45447;-75
2021/12/09 09:35:43;;;;;;;;;7.00;6.00;;;;;8.64;56.56;100340.44;5018720;28;45717;-77
2021/12/09 09:38:09;;;;;;;;;7.33;4.67;;;;;8.58;56.80;100331.22;5018618;28;45399;-75
2021/12/09 09:40:49;;;;;;;;;7.00;6.00;;;;;7.72;56.41;100191.75;5019197;28;45276;-76
2021/12/09 09:45:57;;;;;;;;;8.00;7.00;;;;;8.63;56.80;100358.16;5019571;28;45613;-75
2021/12/09 09:48:23;;;;;;;;;6.00;5.00;;;;;8.64;56.81;100362.47;5019052;28;45226;-77
2021/12/09 09:50:49;;;;;;;;;5.33;4.00;;;;;8.65;56.57;100360.66;5018771;28;45537;-77
2021/12/09 09:53:16;;;;;;;;;7.00;5.67;;;;;8.66;56.68;100371.13;5018674;28;45528;-77
2021/12/09 09:55:44;;;;;;;;;5.33;5.33;;;;;8.46;56.53;100341.16;5017225;28;47044;-75
2021/12/09 09:58:09;;;;;;;;;6.67;6.00;;;;;8.56;56.48;100372.94;5029949;28;45233;-75
2021/12/09 10:00:35;;;;;;;;;6.00;5.00;;;;;8.35;56.68;100340.44;5039251;28;45249;-77
2021/12/09 10:03:03;;;;;;;;;10.67;10.33;;;;;8.49;56.86;100371.81;5039106;28;45481;-75
2021/12/09 10:05:36;;;;;;;;;5.00;5.00;;;;;8.52;57.42;100368.91;5037387;28;47314;-76
2021/12/09 10:08:05;;;;;;;;;9.67;8.00;;;;;8.06;56.58;100296.25;5040429;28;45430;-75
2021/12/09 10:10:31;;;;;;;;;10.67;7.00;;;;;8.55;56.91;100365.97;5039344;28;45356;-75
2021/12/09 10:13:03;;;;;;;;;4.00;4.00;;;;;8.46;56.82;100348.28;5039033;28;45541;-74
2021/12/09 10:15:45;;;;;;;;;5.67;5.33;;;;;8.47;57.01;100363.19;5036964;28;48170;-76
2021/12/09 10:18:13;;;;;;;;;6.00;4.33;;;;;8.21;57.33;100316.03;5037892;28;45446;-77
2021/12/09 10:20:52;;;;;;;;;6.00;4.00;;;;;8.24;57.51;100321.06;5036718;28;45524;-77
2021/12/09 10:23:22;;;;;;;;;6.00;5.33;;;;;8.37;57.34;100338.50;5020764;28;45546;-75
2021/12/09 10:26:16;;;;;;;;;8.00;5.00;;;;;8.46;57.49;100338.50;5036816;28;48274;-77
2021/12/09 10:28:49;;;;;;;;;7.67;6.00;;;;;8.35;57.36;100313.97;5038364;28;45456;-79
2021/12/09 10:31:38;;;;;;;;;5.67;4.33;;;;;8.50;57.05;100333.75;5036503;28;45447;-75
2021/12/09 10:34:16;;;;;;;;;8.00;6.00;;;;;8.52;57.41;100324.69;5038832;28;45672;-76
2021/12/09 10:36:48;;;;;;;;;5.00;4.33;;;;;8.34;57.29;100301.69;5017323;28;47053;-74
2021/12/09 10:39:14;;;;;;;;;8.00;5.67;;;;;8.50;57.52;100323.16;5016891;28;45626;-77
2021/12/09 10:41:39;;;;;;;;;15.00;13.67;;;;;8.52;57.77;100319.38;5019400;28;45384;-76
2021/12/09 10:44:05;;;;;;;;;9.00;7.33;;;;;8.51;57.25;100312.41;5017092;28;45456;-77
2021/12/09 10:46:50;;;;;;;;;7.33;5.33;;;;;8.66;57.36;100322.59;5018255;28;46349;-76
2021/12/09 10:49:20;;;;;;;;;5.67;5.00;;;;;8.58;57.20;100319.78;5017600;28;46017;-76
2021/12/09 10:52:00;;;;;;;;;5.67;4.00;;;;;8.08;58.00;100243.16;5017406;28;45333;-76
2021/12/09 10:54:36;;;;;;;;;5.00;3.67;;;;;8.59;57.72;100314.34;5016696;28;45589;-76
2021/12/09 10:57:31;;;;;;;;;6.67;5.33;;;;;8.66;57.54;100319.94;5016149;28;46797;-77
2021/12/09 11:00:18;;;;;;;;;4.67;4.67;;;;;8.57;57.46;100300.41;5032938;28;45513;-76
2021/12/09 11:03:00;;;;;;;;;6.33;6.33;;;;;8.48;57.76;100283.56;5016496;28;45560;-76
2021/12/09 11:05:26;;;;;;;;;10.33;6.67;;;;;8.42;57.48;100286.78;5017285;28;45466;-77
2021/12/09 11:08:32;;;;;;;;;6.33;5.33;;;;;8.09;57.97;100229.78;5016212;28;48110;-76
2021/12/09 11:11:34;;;;;;;;;4.67;4.00;;;;;8.54;57.68;100300.69;5017984;28;45214;-77
2021/12/09 11:14:05;;;;;;;;;7.33;7.00;;;;;8.54;57.91;100298.06;5026125;28;45452;-75
2021/12/09 11:16:40;;;;;;;;;5.00;5.00;;;;;6.61;57.63;99994.66;5017838;28;45257;-76
2021/12/09 11:19:48;;;;;;;;;4.33;4.33;;;;;7.33;58.14;100088.59;5015720;28;46826;-77
2021/12/09 11:22:58;;;;;;;;;8.00;6.67;;;;;7.20;57.86;100053.66;5010328;28;45460;-75
2021/12/09 11:26:23;;;;;;;;;4.33;3.00;;;;;8.55;58.24;100289.13;5018618;28;45448;-78
2021/12/09 11:29:01;;;;;;;;;7.00;6.00;;;;;7.47;58.00;100111.97;5018111;28;45280;-77
2021/12/09 11:32:40;;;;;;;;;5.67;5.00;;;;;7.47;58.14;100085.53;5016199;28;47840;-76
2021/12/09 11:34:52;;;;;;;;;3.33;2.00;;;;;7.90;58.15;100153.84;5009951;28;45425;-78
2021/12/09 11:41:29;;;;;;;;;4.67;4.67;;;;;7.31;57.74;100042.94;5016608;28;45554;-75
2021/12/09 11:44:26;;;;;;;;;13.00;9.67;;;;;8.87;57.27;100282.66;5014800;28;46990;-75
2021/12/09 11:47:04;;;;;;;;;6.33;5.00;;;;;8.91;57.04;100289.31;5016544;28;45427;-75
2021/12/09 11:49:52;;;;;;;;;5.00;4.67;;;;;7.65;57.19;100079.53;5017825;28;45368;-78